Time;durP1;ratioP1;P1;durP2;ratioP2;P2;SDS_P1;SDS_P2;PMS_P1;PMS_P2;Temp;Humidity;BMP_temperature;BMP_pressure;BME280_temperature;BME280_humidity;BME280_pressure;Samples;Min_cycle;Max_cycle;Signal;HPM_P1;HPM_P2
2023/10/11 00:00:40;;;;;;;8.43;4.80;;;16.60;99.90;;;;;;4920961;29;20178;-87
2023/10/11 00:03:16;;;;;;;8.73;4.93;;;16.60;99.90;;;;;;4920124;29;20205;-88
2023/10/11 00:05:44;;;;;;;12.68;5.07;;;16.60;99.90;;;;;;4920591;29;20209;-87
2023/10/11 00:08:19;;;;;;;11.27;5.10;;;16.50;99.90;;;;;;4920602;29;20209;-89
2023/10/11 00:10:54;;;;;;;10.15;4.43;;;16.60;99.90;;;;;;4920214;29;20189;-89
2023/10/11 00:13:25;;;;;;;10.70;4.22;;;16.50;99.90;;;;;;4920350;29;20189;-90
2023/10/11 00:15:52;;;;;;;9.25;4.72;;;16.50;99.90;;;;;;4937846;29;20176;-94
2023/10/11 00:18:30;;;;;;;13.38;5.05;;;16.50;99.90;;;;;;4920864;29;20209;-88
2023/10/11 00:20:59;;;;;;;8.38;4.55;;;16.50;99.90;;;;;;4920730;29;20170;-87
2023/10/11 00:23:27;;;;;;;11.48;4.78;;;16.50;99.90;;;;;;4920559;29;20192;-90
2023/10/11 00:25:54;;;;;;;8.95;5.03;;;16.50;99.90;;;;;;4937415;29;20617;-88
2023/10/11 00:28:26;;;;;;;11.20;4.95;;;16.50;99.90;;;;;;4937520;29;20633;-90
2023/10/11 00:30:58;;;;;;;11.10;5.22;;;16.40;99.90;;;;;;4937470;29;20166;-90
2023/10/11 00:33:24;;;;;;;9.63;4.82;;;16.40;99.90;;;;;;4920544;29;20303;-89
2023/10/11 00:35:51;;;;;;;9.95;4.90;;;16.40;99.90;;;;;;4937269;29;20177;-89
2023/10/11 00:38:19;;;;;;;9.23;4.38;;;16.50;99.90;;;;;;4920497;29;20226;-89
2023/10/11 00:41:07;;;;;;;8.80;5.03;;;16.50;99.90;;;;;;4920101;29;20190;-90
2023/10/11 00:43:38;;;;;;;10.40;4.80;;;16.40;99.90;;;;;;4920896;29;20506;-93
2023/10/11 00:46:08;;;;;;;12.23;4.95;;;16.40;99.90;;;;;;4937746;29;20197;-91
2023/10/11 00:51:26;;;;;;;10.88;5.45;;;16.40;99.90;;;;;;4937680;29;20233;-88
2023/10/11 00:53:53;;;;;;;9.55;4.68;;;16.50;99.90;;;;;;4920523;29;20629;-88
2023/10/11 00:56:20;;;;;;;10.32;4.80;;;16.40;99.90;;;;;;4937290;29;20185;-88
2023/10/11 00:58:50;;;;;;;8.88;4.90;;;16.40;99.90;;;;;;4935922;29;20217;-88
2023/10/11 01:01:17;;;;;;;10.88;4.53;;;16.40;99.90;;;;;;4936155;29;20178;-89
2023/10/11 01:03:43;;;;;;;8.93;4.90;;;16.40;99.90;;;;;;4920418;29;20193;-90
2023/10/11 01:06:10;;;;;;;12.02;4.50;;;16.50;99.90;;;;;;4920069;29;20273;-84
2023/10/11 01:08:40;;;;;;;10.63;4.53;;;16.50;99.90;;;;;;4920244;29;20587;-88
2023/10/11 01:11:15;;;;;;;10.73;4.63;;;16.50;99.90;;;;;;4919623;29;20185;-88
2023/10/11 01:13:42;;;;;;;10.10;4.82;;;16.40;99.90;;;;;;4936976;29;20165;-91
2023/10/11 01:16:14;;;;;;;11.02;5.03;;;16.40;99.90;;;;;;4921607;29;20185;-86
2023/10/11 01:18:42;;;;;;;13.10;5.25;;;16.40;99.90;;;;;;4923432;29;20213;-88
2023/10/11 01:21:09;;;;;;;8.27;4.80;;;16.40;99.90;;;;;;4940621;29;20182;-87
2023/10/11 01:23:35;;;;;;;7.53;4.88;;;16.40;99.90;;;;;;4940464;29;20627;-90
2023/10/11 01:26:08;;;;;;;13.00;4.78;;;16.30;99.90;;;;;;4923220;29;20186;-90
2023/10/11 01:28:35;;;;;;;7.95;4.40;;;16.30;99.90;;;;;;4923392;29;20251;-87
2023/10/11 01:31:08;;;;;;;11.13;5.25;;;16.30;99.90;;;;;;4939155;29;20185;-90
2023/10/11 01:33:41;;;;;;;11.35;4.63;;;16.30;99.90;;;;;;4923150;29;20181;-88
2023/10/11 01:36:09;;;;;;;10.65;4.60;;;16.30;99.90;;;;;;4916271;29;20265;-88
2023/10/11 01:38:47;;;;;;;11.18;4.45;;;16.30;99.90;;;;;;4901479;29;20234;-93
2023/10/11 01:41:26;;;;;;;9.32;4.35;;;16.20;99.90;;;;;;4901929;29;20172;-95
2023/10/11 01:43:53;;;;;;;12.18;5.30;;;16.20;99.90;;;;;;4901755;29;20171;-93
2023/10/11 01:46:25;;;;;;;10.63;4.70;;;16.20;99.90;;;;;;4903118;29;20183;-93
2023/10/11 01:48:56;;;;;;;10.50;5.47;;;16.20;99.90;;;;;;4901654;29;20175;-95
2023/10/11 01:51:26;;;;;;;12.38;4.78;;;16.20;99.90;;;;;;4902503;29;20171;-87
2023/10/11 01:53:56;;;;;;;12.05;4.15;;;16.20;99.90;;;;;;4900932;29;20273;-87
2023/10/11 01:56:25;;;;;;;7.97;4.40;;;16.30;99.90;;;;;;4900602;29;20193;-91
2023/10/11 01:59:01;;;;;;;11.07;4.57;;;16.20;99.90;;;;;;4900852;29;20226;-89
2023/10/11 02:01:30;;;;;;;10.98;4.82;;;16.30;99.90;;;;;;4900796;29;20197;-88
2023/10/11 02:04:04;;;;;;;12.45;4.40;;;16.30;99.90;;;;;;4901787;29;20187;-88
2023/10/11 02:06:32;;;;;;;10.10;4.53;;;16.30;99.90;;;;;;4907555;29;20201;-87
2023/10/11 02:08:59;;;;;;;17.45;4.95;;;16.40;99.90;;;;;;4914903;29;20195;-89
2023/10/11 02:11:29;;;;;;;6.70;4.57;;;16.40;99.90;;;;;;4901693;29;20176;-88
2023/10/11 02:13:57;;;;;;;13.38;4.43;;;16.40;99.90;;;;;;4900783;29;20191;-88
2023/10/11 02:16:24;;;;;;;10.48;4.53;;;16.40;99.90;;;;;;4900291;29;20191;-87
2023/10/11 02:18:58;;;;;;;11.65;4.85;;;16.40;99.90;;;;;;4901465;29;20286;-85
2023/10/11 02:21:24;;;;;;;9.93;4.63;;;16.40;99.90;;;;;;4901014;29;20179;-94
2023/10/11 02:23:50;;;;;;;9.00;4.15;;;16.40;99.90;;;;;;4901365;29;20183;-93
2023/10/11 02:26:16;;;;;;;10.13;4.90;;;16.40;99.90;;;;;;4901827;29;20191;-95
2023/10/11 02:28:45;;;;;;;9.60;4.03;;;16.40;99.90;;;;;;4901287;29;20274;-94
2023/10/11 02:31:14;;;;;;;8.27;4.20;;;16.40;99.90;;;;;;4900931;29;20175;-94
2023/10/11 02:33:40;;;;;;;9.45;4.30;;;16.40;99.90;;;;;;4901056;29;20191;-93
2023/10/11 02:36:09;;;;;;;8.77;4.13;;;16.40;99.90;;;;;;4900691;29;20231;-95
2023/10/11 02:38:47;;;;;;;11.43;4.90;;;16.40;99.90;;;;;;4902237;29;20207;-95
2023/10/11 02:41:17;;;;;;;9.02;4.70;;;16.30;99.90;;;;;;4901820;29;20484;-87
2023/10/11 02:43:49;;;;;;;11.43;4.55;;;16.30;99.90;;;;;;4900011;29;20188;-87
2023/10/11 02:46:16;;;;;;;10.68;5.07;;;16.40;99.90;;;;;;4900207;29;20208;-94
2023/10/11 02:48:46;;;;;;;8.27;4.55;;;16.40;99.90;;;;;;4901995;29;20182;-96
2023/10/11 02:51:16;;;;;;;11.13;4.70;;;16.40;99.90;;;;;;4901884;29;20254;-88
2023/10/11 02:53:43;;;;;;;9.05;4.68;;;16.30;99.90;;;;;;5307070;23;20201;-92
2023/10/11 02:56:10;;;;;;;10.75;4.40;;;16.30;99.90;;;;;;4940669;29;20227;-87
2023/10/11 02:58:39;;;;;;;14.50;4.75;;;16.30;99.90;;;;;;4941062;29;20217;-90
2023/10/11 03:01:14;;;;;;;8.80;4.25;;;16.40;99.90;;;;;;4941010;29;20199;-88
2023/10/11 03:03:43;;;;;;;9.07;4.70;;;16.40;99.90;;;;;;4941078;29;20173;-89
2023/10/11 03:06:10;;;;;;;9.57;4.03;;;16.40;99.90;;;;;;4940799;29;20496;-88
2023/10/11 03:08:40;;;;;;;12.95;4.82;;;16.40;99.90;;;;;;4940906;29;20260;-87
2023/10/11 03:11:15;;;;;;;9.00;4.65;;;16.30;99.90;;;;;;4958190;29;20169;-87
2023/10/11 03:13:42;;;;;;;10.48;4.45;;;16.30;99.90;;;;;;4958044;29;20248;-88
2023/10/11 03:16:17;;;;;;;9.20;4.25;;;16.30;99.90;;;;;;4940709;29;20177;-87
2023/10/11 03:18:46;;;;;;;11.02;4.15;;;16.40;99.90;;;;;;4958000;29;20239;-89
2023/10/11 03:21:19;;;;;;;10.95;5.07;;;16.40;99.90;;;;;;4940837;29;20276;-88
2023/10/11 03:23:54;;;;;;;7.65;4.95;;;16.40;99.90;;;;;;4957669;29;20663;-86
2023/10/11 03:26:22;;;;;;;8.82;4.80;;;16.30;99.90;;;;;;4940521;29;20179;-89
2023/10/11 03:29:03;;;;;;;8.07;4.50;;;16.30;99.90;;;;;;4957611;29;20197;-90
2023/10/11 03:31:31;;;;;;;10.75;4.95;;;16.30;99.90;;;;;;4957701;29;20158;-88
2023/10/11 03:34:14;;;;;;;13.82;4.57;;;16.20;99.90;;;;;;4940458;29;20641;-89
2023/10/11 03:36:43;;;;;;;7.18;4.40;;;16.20;99.90;;;;;;4940543;29;20181;-93
2023/10/11 03:39:16;;;;;;;8.90;4.20;;;16.20;99.90;;;;;;4939325;29;20224;-89
2023/10/11 03:41:45;;;;;;;8.98;4.65;;;16.20;99.90;;;;;;4957531;29;20208;-87
2023/10/11 03:44:11;;;;;;;8.75;4.15;;;16.20;99.90;;;;;;4940507;29;20186;-91
2023/10/11 03:46:41;;;;;;;8.27;4.07;;;16.20;99.90;;;;;;4940606;29;20178;-93
2023/10/11 03:51:48;;;;;;;8.18;4.45;;;16.10;99.90;;;;;;4958339;29;20192;-96
2023/10/11 03:54:19;;;;;;;8.43;4.80;;;16.10;99.90;;;;;;4939261;29;20229;-87
2023/10/11 03:56:45;;;;;;;8.20;4.50;;;16.10;99.90;;;;;;4955715;29;20189;-86
2023/10/11 03:59:13;;;;;;;10.38;4.40;;;16.10;99.90;;;;;;4940357;29;20185;-96
2023/10/11 04:01:38;;;;;;;8.80;4.45;;;16.10;99.90;;;;;;4940868;29;20609;-96
2023/10/11 04:04:05;;;;;;;6.72;4.18;;;16.10;99.90;;;;;;4958129;29;20192;-94
2023/10/11 04:06:34;;;;;;;10.05;4.18;;;16.10;99.90;;;;;;4957706;29;20577;-96
2023/10/11 04:09:02;;;;;;;11.20;4.65;;;16.00;99.90;;;;;;4940230;29;20173;-96
2023/10/11 04:14:24;;;;;;;11.25;4.45;;;16.00;99.90;;;;;;4956802;29;20217;-86
2023/10/11 04:16:55;;;;;;;11.07;4.97;;;16.00;99.90;;;;;;4939337;29;20180;-86
2023/10/11 04:19:21;;;;;;;11.40;4.53;;;16.00;99.90;;;;;;4940207;29;20177;-93
2023/10/11 04:24:19;;;;;;;8.10;4.22;;;16.00;99.90;;;;;;4957549;29;20191;-95
2023/10/11 04:27:45;;;;;;;7.55;4.32;;;15.90;99.90;;;;;;4940452;29;20616;-91
2023/10/11 04:29:44;;;;;;;10.85;4.63;;;15.90;99.90;;;;;;4957046;29;20399;-96
2023/10/11 04:32:13;;;;;;;7.15;4.25;;;15.90;99.90;;;;;;4940448;29;20209;-95
2023/10/11 04:34:47;;;;;;;7.90;4.15;;;15.90;99.90;;;;;;4940124;29;20185;-95
2023/10/11 04:37:43;;;;;;;8.57;4.30;;;15.90;99.90;;;;;;4939939;29;20208;-96
2023/10/11 04:43:05;;;;;;;12.10;4.65;;;15.90;99.90;;;;;;4956770;29;20216;-91
2023/10/11 04:45:47;;;;;;;9.32;4.03;;;15.90;99.90;;;;;;4957337;29;20248;-91
2023/10/11 04:48:18;;;;;;;8.52;4.40;;;15.90;99.90;;;;;;4956963;29;20165;-87
2023/10/11 04:50:50;;;;;;;10.45;4.35;;;15.90;99.90;;;;;;4958818;28;20166;-87
2023/10/11 04:53:18;;;;;;;12.40;4.55;;;15.90;99.90;;;;;;4942676;29;20183;-90
2023/10/11 04:55:47;;;;;;;11.48;4.85;;;15.90;99.90;;;;;;4942466;29;20241;-86
2023/10/11 04:58:38;;;;;;;11.20;4.38;;;15.90;99.90;;;;;;4938991;29;20639;-85
2023/10/11 05:01:02;;;;;;;8.55;4.78;;;15.90;99.90;;;;;;4940748;29;20184;-85
2023/10/11 05:03:30;;;;;;;9.60;4.53;;;15.90;99.90;;;;;;4923615;29;20177;-87
2023/10/11 05:05:58;;;;;;;11.85;4.70;;;15.90;99.90;;;;;;4923977;29;20177;-87
2023/10/11 05:08:51;;;;;;;7.53;4.55;;;15.90;99.90;;;;;;4924048;29;20189;-86
2023/10/11 05:11:58;;;;;;;10.82;4.82;;;15.90;99.90;;;;;;4940603;29;20178;-89
2023/10/11 05:14:10;;;;;;;11.43;4.93;;;15.90;99.90;;;;;;4933068;29;20191;-88
2023/10/11 05:16:44;;;;;;;13.10;4.60;;;15.90;99.90;;;;;;4941060;29;20158;-91
2023/10/11 05:19:14;;;;;;;6.90;4.40;;;15.90;99.90;;;;;;4941216;29;20233;-88
2023/10/11 05:21:40;;;;;;;12.95;4.53;;;15.90;99.90;;;;;;4923873;29;20277;-86
2023/10/11 05:24:14;;;;;;;10.00;4.25;;;15.90;99.90;;;;;;4943894;29;20640;-90
2023/10/11 05:26:48;;;;;;;7.28;4.28;;;15.90;99.90;;;;;;4943008;29;20205;-86
2023/10/11 05:30:06;;;;;;;12.02;4.95;;;15.90;99.90;;;;;;4960299;29;20227;-86
2023/10/11 05:32:23;;;;;;;7.93;4.47;;;15.90;99.90;;;;;;4956181;29;20197;-88
2023/10/11 05:35:07;;;;;;;9.60;4.55;;;15.90;99.90;;;;;;4960169;29;20168;-87
2023/10/11 05:51:14;;;;;;;10.05;4.85;;;16.00;99.90;;;;;;4959805;29;20177;-87
2023/10/11 05:53:40;;;;;;;11.75;4.75;;;16.00;99.90;;;;;;4942210;28;20181;-86
2023/10/11 05:56:08;;;;;;;9.73;4.68;;;16.00;99.90;;;;;;4923087;29;20613;-89
2023/10/11 05:58:34;;;;;;;9.93;4.38;;;16.00;99.90;;;;;;4940373;29;20305;-87
2023/10/11 06:01:06;;;;;;;10.55;5.03;;;16.00;99.90;;;;;;4938615;29;20213;-87
2023/10/11 06:03:35;;;;;;;11.07;4.82;;;16.10;99.90;;;;;;4923286;29;20189;-88
2023/10/11 06:06:11;;;;;;;8.30;4.45;;;16.10;99.90;;;;;;4923536;29;20178;-95
2023/10/11 06:08:39;;;;;;;9.57;4.88;;;16.10;99.90;;;;;;4923608;29;20216;-87
2023/10/11 06:11:08;;;;;;;8.20;4.63;;;16.10;99.90;;;;;;4922748;29;20193;-87
2023/10/11 06:13:36;;;;;;;9.10;4.90;;;16.10;99.90;;;;;;4940288;29;20170;-87
2023/10/11 06:16:03;;;;;;;9.10;4.60;;;16.10;99.90;;;;;;4939960;29;20185;-90
2023/10/11 06:18:38;;;;;;;9.25;4.07;;;16.20;99.90;;;;;;4923055;29;20559;-86
2023/10/11 06:21:24;;;;;;;7.68;4.53;;;16.20;99.90;;;;;;4923172;29;20526;-85
2023/10/11 06:23:51;;;;;;;9.65;5.07;;;16.20;99.90;;;;;;4940021;29;20623;-87
2023/10/11 06:29:15;;;;;;;7.47;4.22;;;16.20;99.90;;;;;;4936748;29;20192;-88
2023/10/11 06:31:43;;;;;;;9.85;4.30;;;16.20;99.90;;;;;;4941844;29;20244;-93
2023/10/11 06:34:17;;;;;;;12.88;4.32;;;16.20;99.90;;;;;;4941699;29;20177;-88
2023/10/11 06:36:49;;;;;;;8.48;4.75;;;16.30;99.90;;;;;;4941855;29;20178;-89
2023/10/11 06:39:33;;;;;;;10.55;4.18;;;16.20;99.90;;;;;;4941838;29;20244;-88
2023/10/11 06:42:12;;;;;;;7.93;4.60;;;16.30;99.90;;;;;;4941676;29;20179;-89
2023/10/11 06:44:43;;;;;;;9.35;4.47;;;16.30;99.90;;;;;;4941662;29;20209;-86
2023/10/11 06:47:11;;;;;;;8.73;4.38;;;16.30;99.90;;;;;;4958929;29;20260;-88
2023/10/11 06:49:40;;;;;;;8.25;4.50;;;16.30;99.90;;;;;;4941518;29;20637;-92
2023/10/11 06:52:11;;;;;;;10.35;4.38;;;16.30;99.90;;;;;;4941485;29;20227;-93
2023/10/11 06:54:48;;;;;;;8.10;4.00;;;16.30;99.90;;;;;;4941196;29;20239;-92
2023/10/11 06:57:21;;;;;;;12.27;4.47;;;16.30;99.90;;;;;;4941676;29;20300;-90
2023/10/11 06:59:50;;;;;;;9.50;4.13;;;16.30;99.90;;;;;;4958366;29;20612;-87
2023/10/11 07:02:31;;;;;;;8.75;4.40;;;16.40;99.90;;;;;;4940958;29;20185;-92
2023/10/11 07:05:00;;;;;;;10.27;4.38;;;16.40;99.90;;;;;;4958229;29;20548;-88
2023/10/11 07:07:32;;;;;;;8.38;4.30;;;16.40;99.90;;;;;;4958113;29;20173;-88
2023/10/11 07:09:58;;;;;;;8.50;4.18;;;16.40;99.90;;;;;;4940559;29;20181;-88
2023/10/11 07:12:39;;;;;;;13.65;4.10;;;16.40;99.90;;;;;;4957791;28;20252;-88
2023/10/11 07:15:09;;;;;;;10.63;4.80;;;16.40;99.90;;;;;;4957380;29;20166;-86
2023/10/11 07:17:36;;;;;;;10.68;4.38;;;16.50;99.90;;;;;;4940485;29;20264;-86
2023/10/11 07:20:19;;;;;;;8.27;4.20;;;16.50;99.90;;;;;;4940590;29;20228;-88
2023/10/11 07:22:45;;;;;;;7.47;3.60;;;16.50;99.90;;;;;;4940686;29;20236;-87
2023/10/11 07:25:36;;;;;;;7.97;3.75;;;16.60;99.90;;;;;;4956899;29;20185;-91
2023/10/11 07:28:03;;;;;;;16.50;4.20;;;16.70;99.90;;;;;;4930456;29;20193;-87
2023/10/11 07:30:37;;;;;;;9.02;3.88;;;16.80;99.90;;;;;;4937335;29;20201;-88
2023/10/11 07:33:04;;;;;;;11.50;4.43;;;16.80;99.90;;;;;;4938513;29;20250;-83
2023/10/11 07:35:51;;;;;;;7.57;4.32;;;16.80;99.90;;;;;;5109701;27;1379733;-91
2023/10/11 07:38:17;;;;;;;8.20;4.00;;;16.80;99.90;;;;;;5132882;28;20262;-87
2023/10/11 07:40:46;;;;;;;9.98;4.05;;;16.80;99.90;;;;;;5134024;27;20195;-87
2023/10/11 07:43:16;;;;;;;9.73;4.25;;;16.80;99.90;;;;;;5132404;28;20179;-89
2023/10/11 07:45:47;;;;;;;9.43;4.50;;;16.80;99.90;;;;;;5132709;28;20205;-90
2023/10/11 07:48:16;;;;;;;12.50;4.15;;;16.80;99.90;;;;;;5132535;28;20163;-87
2023/10/11 07:50:42;;;;;;;11.90;4.40;;;16.80;99.90;;;;;;5133092;28;20163;-90
2023/10/11 07:53:13;;;;;;;11.07;4.22;;;16.80;99.90;;;;;;5134182;27;20179;-87
2023/10/11 07:55:45;;;;;;;9.23;4.35;;;16.90;99.90;;;;;;5116115;28;20251;-88
2023/10/11 07:58:11;;;;;;;7.15;4.18;;;16.90;99.90;;;;;;5111356;28;20198;-89
2023/10/11 08:00:41;;;;;;;8.10;3.78;;;16.90;99.90;;;;;;5112586;28;20176;-88
2023/10/11 08:03:08;;;;;;;10.93;4.15;;;17.00;99.90;;;;;;5111155;28;20172;-89
2023/10/11 08:05:45;;;;;;;9.85;3.80;;;17.10;99.90;;;;;;5111142;28;20518;-86
2023/10/11 08:08:15;;;;;;;8.43;4.75;;;17.10;99.90;;;;;;5113187;28;20200;-93
2023/10/11 08:10:52;;;;;;;6.32;3.95;;;17.20;99.90;;;;;;5111216;28;20172;-92
2023/10/11 08:13:24;;;;;;;11.93;4.05;;;17.20;99.90;;;;;;5111669;28;20702;-89
2023/10/11 08:15:57;;;;;;;9.85;4.10;;;17.30;99.90;;;;;;5111109;28;20704;-87
2023/10/11 08:18:24;;;;;;;8.93;4.10;;;17.30;99.90;;;;;;5112592;28;20286;-88
2023/10/11 08:20:50;;;;;;;8.73;4.18;;;17.30;99.90;;;;;;5111286;28;20164;-85
2023/10/11 08:23:29;;;;;;;10.35;4.20;;;17.40;99.90;;;;;;5112060;28;20198;-93
2023/10/11 08:25:56;;;;;;;14.32;4.57;;;17.50;99.90;;;;;;5111634;28;20517;-86
2023/10/11 08:28:34;;;;;;;14.82;4.50;;;17.50;99.90;;;;;;5112575;28;20259;-88
2023/10/11 08:31:00;;;;;;;13.45;4.35;;;17.60;99.90;;;;;;5113478;28;20544;-88
2023/10/11 08:33:30;;;;;;;13.13;3.90;;;17.70;99.90;;;;;;5111455;28;20513;-90
2023/10/11 08:35:57;;;;;;;14.95;4.30;;;17.70;99.90;;;;;;5112749;28;20262;-86
2023/10/11 08:38:25;;;;;;;8.95;4.13;;;17.80;99.90;;;;;;5111397;28;20168;-87
2023/10/11 08:40:58;;;;;;;10.82;3.78;;;17.80;99.90;;;;;;5111374;28;20184;-89
2023/10/11 08:43:26;;;;;;;6.63;3.95;;;17.80;99.90;;;;;;5111673;28;20172;-88
2023/10/11 08:46:00;;;;;;;13.18;5.00;;;17.70;99.90;;;;;;5104432;28;20614;-91
2023/10/11 08:48:27;;;;;;;11.00;4.10;;;17.80;99.90;;;;;;5099487;28;20209;-89
2023/10/11 08:50:55;;;;;;;8.15;4.10;;;17.80;99.90;;;;;;5100051;28;20164;-89
2023/10/11 08:53:24;;;;;;;9.18;3.85;;;17.90;99.90;;;;;;5098137;28;20172;-94
2023/10/11 08:55:56;;;;;;;7.65;4.18;;;17.90;99.90;;;;;;5115935;28;20700;-88
2023/10/11 08:58:29;;;;;;;12.52;4.45;;;18.00;99.90;;;;;;5118255;28;20172;-86
2023/10/11 09:00:59;;;;;;;11.35;4.20;;;18.10;99.90;;;;;;5118277;28;20281;-89
2023/10/11 09:03:26;;;;;;;8.27;4.07;;;18.30;99.90;;;;;;5117600;28;20175;-88
2023/10/11 09:05:58;;;;;;;10.32;4.22;;;18.30;99.90;;;;;;5118273;28;20260;-86
2023/10/11 09:08:32;;;;;;;11.00;4.10;;;18.40;99.90;;;;;;5117406;28;20582;-86
2023/10/11 09:11:14;;;;;;;8.77;4.15;;;18.50;99.90;;;;;;5117079;28;20172;-89
2023/10/11 09:13:42;;;;;;;12.20;4.22;;;18.50;99.90;;;;;;5116583;28;20200;-87
2023/10/11 09:16:14;;;;;;;9.00;3.50;;;18.50;99.90;;;;;;5118117;28;20323;-86
2023/10/11 09:19:05;;;;;;;9.75;4.40;;;18.50;99.90;;;;;;5116811;28;20168;-87
2023/10/11 09:21:35;;;;;;;10.15;4.57;;;18.50;99.90;;;;;;5116876;28;20262;-87
2023/10/11 09:24:01;;;;;;;8.93;4.43;;;18.40;99.90;;;;;;5118206;28;20179;-93
2023/10/11 09:26:35;;;;;;;11.32;4.63;;;18.40;99.90;;;;;;5123763;28;20180;-89
2023/10/11 09:29:05;;;;;;;13.05;5.07;;;18.50;99.90;;;;;;5120149;28;20176;-89
2023/10/11 09:31:35;;;;;;;12.20;4.35;;;18.50;99.90;;;;;;5121395;28;20511;-89
2023/10/11 09:34:05;;;;;;;9.98;3.90;;;18.60;99.90;;;;;;5119686;28;20250;-90
2023/10/11 09:36:31;;;;;;;7.70;4.10;;;18.60;99.90;;;;;;5120836;28;20202;-92
2023/10/11 09:39:03;;;;;;;9.43;4.07;;;18.70;99.90;;;;;;5123013;28;20183;-89
2023/10/11 09:41:38;;;;;;;12.43;4.22;;;18.70;99.90;;;;;;5132640;28;20168;-93
2023/10/11 09:44:05;;;;;;;11.40;4.20;;;18.80;99.90;;;;;;5130016;28;20180;-93
2023/10/11 09:46:34;;;;;;;8.77;3.92;;;18.80;99.90;;;;;;5133462;28;20208;-94
2023/10/11 09:49:12;;;;;;;11.90;4.15;;;18.90;99.90;;;;;;5130712;28;20175;-90
2023/10/11 09:51:46;;;;;;;10.02;4.00;;;18.80;99.90;;;;;;5129365;28;20213;-94
2023/10/11 09:54:13;;;;;;;6.53;3.63;;;18.90;99.90;;;;;;5133447;28;20220;-90
2023/10/11 09:56:50;;;;;;;9.55;4.40;;;18.90;99.90;;;;;;5133887;28;20183;-92
2023/10/11 09:59:46;;;;;;;11.25;4.25;;;18.90;99.90;;;;;;5126925;28;20168;-92
2023/10/11 10:02:24;;;;;;;10.00;4.30;;;19.00;99.90;;;;;;5121309;28;20172;-90
2023/10/11 10:04:50;;;;;;;8.35;3.90;;;19.00;99.90;;;;;;5129721;28;20171;-96
2023/10/11 10:10:24;;;;;;;8.98;4.30;;;19.00;99.90;;;;;;5127424;28;20178;-96
2023/10/11 10:13:09;;;;;;;7.93;4.07;;;18.90;99.90;;;;;;5121024;28;20175;-96
2023/10/11 10:15:47;;;;;;;7.78;3.55;;;18.90;99.90;;;;;;5127655;28;20544;-96
2023/10/11 10:19:07;;;;;;;7.82;3.85;;;18.80;99.90;;;;;;5128420;28;20184;-93
2023/10/11 10:22:10;;;;;;;7.18;3.70;;;18.90;99.90;;;;;;5130695;28;20164;-89
2023/10/11 10:24:36;;;;;;;9.10;3.50;;;19.00;99.90;;;;;;5125806;28;20184;-90
2023/10/11 10:27:33;;;;;;;8.15;3.50;;;19.10;99.90;;;;;;5121809;28;20669;-93
2023/10/11 10:30:07;;;;;;;6.30;3.50;;;19.30;99.90;;;;;;5120987;28;20207;-96
2023/10/11 10:32:34;;;;;;;10.32;3.78;;;19.50;99.90;;;;;;5121591;28;20163;-92
2023/10/11 10:35:18;;;;;;;6.20;3.33;;;19.60;99.90;;;;;;5120732;28;20231;-96
2023/10/11 10:37:50;;;;;;;5.85;3.10;;;19.70;99.90;;;;;;5122459;28;20175;-93
2023/10/11 10:40:29;;;;;;;8.52;3.97;;;19.70;99.90;;;;;;5120839;28;20176;-88
2023/10/11 10:43:08;;;;;;;8.50;3.63;;;19.90;99.90;;;;;;5131093;28;20159;-94
2023/10/11 10:45:35;;;;;;;12.18;4.00;;;20.00;99.90;;;;;;5123639;28;20167;-96
2023/10/11 10:48:14;;;;;;;7.25;3.58;;;20.10;99.90;;;;;;5127383;28;20243;-92
2023/10/11 10:51:04;;;;;;;9.50;3.10;;;20.20;99.90;;;;;;5120314;28;20616;-93
2023/10/11 10:53:50;;;;;;;7.85;3.42;;;20.20;99.90;;;;;;5127957;28;20237;-96
2023/10/11 10:56:21;;;;;;;11.43;3.60;;;20.10;99.90;;;;;;5127148;28;20172;-96
2023/10/11 10:59:14;;;;;;;9.43;3.40;;;20.10;99.90;;;;;;5122465;28;20599;-95
2023/10/11 11:01:46;;;;;;;7.88;3.45;;;20.20;99.90;;;;;;5119637;28;20172;-96
2023/10/11 11:04:22;;;;;;;8.15;3.25;;;20.30;99.90;;;;;;5119948;28;20232;-90
2023/10/11 11:06:49;;;;;;;8.63;3.58;;;20.40;99.90;;;;;;5118695;28;20159;-93
2023/10/11 11:09:26;;;;;;;7.97;3.33;;;20.40;99.90;;;;;;5120816;28;20176;-96
2023/10/11 11:11:55;;;;;;;8.18;3.50;;;20.40;99.90;;;;;;5125036;28;20168;-94
2023/10/11 11:14:23;;;;;;;7.53;3.22;;;20.50;99.90;;;;;;5125321;28;20222;-95
2023/10/11 11:16:59;;;;;;;9.85;3.80;;;20.60;99.90;;;;;;5119708;28;20229;-91
2023/10/11 11:19:34;;;;;;;9.20;3.40;;;20.70;99.90;;;;;;5122976;28;20164;-96
2023/10/11 11:22:12;;;;;;;6.97;3.22;;;20.70;99.90;;;;;;5122113;28;20182;-96
2023/10/11 11:24:41;;;;;;;7.88;3.25;;;20.70;99.90;;;;;;5119170;28;20222;-95
2023/10/11 11:27:28;;;;;;;7.90;3.30;;;20.80;99.90;;;;;;5117378;28;20175;-95
2023/10/11 11:30:35;;;;;;;8.43;3.17;;;20.80;99.90;;;;;;5119049;28;20179;-91
2023/10/11 11:33:13;;;;;;;5.55;3.20;;;20.80;99.90;;;;;;5118812;28;20202;-96
2023/10/11 11:35:52;;;;;;;6.20;3.25;;;20.80;99.90;;;;;;5119994;28;20231;-94
2023/10/11 11:38:21;;;;;;;6.03;3.30;;;21.00;99.90;;;;;;5119769;28;20172;-94
2023/10/11 11:41:04;;;;;;;9.00;2.85;;;21.00;99.90;;;;;;5120039;28;20201;-96
2023/10/11 11:43:34;;;;;;;9.35;3.63;;;21.10;99.90;;;;;;5116726;28;20306;-96
2023/10/11 11:46:01;;;;;;;9.48;3.22;;;21.20;99.90;;;;;;5117007;28;20179;-95
2023/10/11 11:48:28;;;;;;;7.20;3.10;;;21.20;99.90;;;;;;5116357;28;20267;-93
2023/10/11 11:50:57;;;;;;;7.78;3.17;;;21.30;99.90;;;;;;5115359;28;20175;-88
2023/10/11 11:53:23;;;;;;;7.53;3.13;;;21.40;99.90;;;;;;5114559;28;20179;-90
2023/10/11 11:55:49;;;;;;;10.45;3.47;;;21.40;99.90;;;;;;5114338;28;20187;-91
2023/10/11 11:58:17;;;;;;;6.75;3.35;;;21.50;99.90;;;;;;5114760;28;20178;-91
2023/10/11 12:01:30;;;;;;;6.13;2.85;;;21.50;99.90;;;;;;5097947;28;20513;-92
2023/10/11 12:03:37;;;;;;;9.43;3.40;;;21.50;99.90;;;;;;5108445;28;20283;-90
2023/10/11 12:06:21;;;;;;;7.85;3.13;;;21.50;99.90;;;;;;5115809;28;20301;-92
2023/10/11 12:09:17;;;;;;;6.40;3.47;;;21.50;99.90;;;;;;5116082;28;20172;-96
2023/10/11 12:11:45;;;;;;;8.82;3.38;;;21.60;99.90;;;;;;5116330;28;20172;-90
2023/10/11 12:14:12;;;;;;;5.25;3.10;;;21.70;99.90;;;;;;5114305;28;20717;-94
2023/10/11 12:16:42;;;;;;;8.07;3.13;;;21.60;99.90;;;;;;5114324;28;20213;-91
2023/10/11 12:19:14;;;;;;;10.07;3.38;;;21.70;99.90;;;;;;5114602;28;20225;-93
2023/10/11 12:21:40;;;;;;;11.52;3.60;;;21.70;99.90;;;;;;5117560;28;20172;-90
2023/10/11 12:24:11;;;;;;;10.68;3.33;;;21.80;99.90;;;;;;5118869;28;20187;-92
2023/10/11 12:26:42;;;;;;;9.35;3.30;;;21.80;99.90;;;;;;5118690;28;20183;-93
2023/10/11 12:29:09;;;;;;;14.27;3.70;;;21.90;99.90;;;;;;5119236;28;20201;-89
2023/10/11 12:31:39;;;;;;;12.70;3.50;;;21.90;99.90;;;;;;5121424;28;20186;-92
2023/10/11 12:34:09;;;;;;;9.73;3.00;;;21.90;99.90;;;;;;5120791;27;20242;-91
2023/10/11 12:36:41;;;;;;;11.73;3.05;;;22.00;99.90;;;;;;5119495;28;20174;-89
2023/10/11 12:39:08;;;;;;;11.30;4.80;;;22.10;99.90;;;;;;5120592;28;20183;-92
2023/10/11 12:41:36;;;;;;;11.05;3.58;;;22.10;99.90;;;;;;5120095;28;20172;-93
2023/10/11 12:44:07;;;;;;;14.10;4.18;;;22.20;99.90;;;;;;5119685;28;20172;-89
2023/10/11 12:46:33;;;;;;;9.00;3.47;;;22.20;99.90;;;;;;5120155;28;20163;-91
2023/10/11 12:49:00;;;;;;;12.85;3.80;;;22.20;99.90;;;;;;5119040;28;20233;-89
2023/10/11 12:51:27;;;;;;;12.55;3.60;;;22.30;99.90;;;;;;5118312;28;20188;-90
2023/10/11 12:53:56;;;;;;;14.13;3.38;;;22.40;99.90;;;;;;5118682;28;20206;-89
2023/10/11 12:56:24;;;;;;;12.68;4.03;;;22.50;99.90;;;;;;5117851;28;20179;-92
2023/10/11 12:58:52;;;;;;;15.15;3.47;;;22.60;99.90;;;;;;5118267;28;20172;-89
2023/10/11 13:01:42;;;;;;;11.77;2.97;;;22.60;99.90;;;;;;5117880;28;20270;-91
2023/10/11 13:04:13;;;;;;;14.48;3.55;;;22.60;99.90;;;;;;5119431;28;20183;-87
2023/10/11 13:06:39;;;;;;;11.45;3.60;;;22.50;99.90;;;;;;5120305;28;20211;-89
2023/10/11 13:09:16;;;;;;;10.82;3.22;;;22.50;99.90;;;;;;5119575;27;20167;-89
2023/10/11 13:11:45;;;;;;;11.02;4.10;;;22.50;99.90;;;;;;5118774;28;20168;-91
2023/10/11 13:14:19;;;;;;;18.48;4.03;;;22.30;99.90;;;;;;5120321;28;20204;-93
2023/10/11 13:16:51;;;;;;;11.38;3.40;;;22.30;99.90;;;;;;5119466;28;20272;-89
2023/10/11 13:19:22;;;;;;;14.10;3.40;;;22.20;99.90;;;;;;5119403;28;20180;-90
2023/10/11 13:21:48;;;;;;;11.90;3.63;;;22.10;99.90;;;;;;5102838;28;20198;-87
2023/10/11 13:24:21;;;;;;;14.90;3.72;;;22.10;99.90;;;;;;5124835;27;20180;-89
2023/10/11 13:26:48;;;;;;;14.25;3.58;;;22.10;99.90;;;;;;5140071;27;20174;-91
2023/10/11 13:29:16;;;;;;;10.18;3.95;;;22.10;99.90;;;;;;5139511;27;20206;-90
2023/10/11 13:31:55;;;;;;;18.45;3.88;;;22.10;99.90;;;;;;5138869;27;20171;-90
2023/10/11 13:34:28;;;;;;;13.82;3.38;;;22.10;99.90;;;;;;5139237;27;20222;-92
2023/10/11 13:36:57;;;;;;;14.07;3.40;;;22.00;99.90;;;;;;5139529;27;20602;-88
2023/10/11 13:39:38;;;;;;;10.45;3.58;;;21.90;99.90;;;;;;5140433;27;20507;-88
2023/10/11 13:42:04;;;;;;;15.43;3.80;;;21.90;99.90;;;;;;5138397;27;20613;-88